Time;durP1;ratioP1;P1;durP2;ratioP2;P2;SDS_P1;SDS_P2;PMS_P1;PMS_P2;Temp;Humidity;BMP_temperature;BMP_pressure;BME280_temperature;BME280_humidity;BME280_pressure;Samples;Min_cycle;Max_cycle;Signal;HPM_P1;HPM_P2
2020/12/18 00:03:49;;;;;;;7.97;2.80;;;6.00;99.90;;;;;;6671549;88;20207;-77
2020/12/18 00:13:50;;;;;;;9.13;3.20;;;6.20;99.90;;;;;;6725269;88;20748;-76
2020/12/18 00:23:51;;;;;;;8.18;3.22;;;6.20;99.90;;;;;;6713245;88;20198;-76
2020/12/18 00:33:52;;;;;;;5.78;3.00;;;6.20;99.90;;;;;;6735501;88;20244;-78
2020/12/18 00:43:52;;;;;;;6.25;3.15;;;6.20;99.90;;;;;;6736746;88;20312;-78
2020/12/18 00:53:53;;;;;;;7.40;3.35;;;6.30;99.90;;;;;;6720333;77;20321;-77
2020/12/18 01:03:53;;;;;;;10.68;3.53;;;6.20;99.90;;;;;;6716073;88;20166;-77
2020/12/18 01:13:54;;;;;;;14.02;3.90;;;6.10;99.90;;;;;;6715175;88;20211;-77
2020/12/18 01:23:54;;;;;;;7.07;3.83;;;6.00;99.90;;;;;;6713684;88;20309;-77
2020/12/18 01:33:55;;;;;;;7.22;3.87;;;6.00;99.90;;;;;;6717795;88;20691;-77
2020/12/18 01:43:55;;;;;;;11.32;3.95;;;5.90;99.90;;;;;;6719348;88;20220;-77
2020/12/18 01:53:56;;;;;;;14.27;4.22;;;6.00;99.90;;;;;;6717351;88;20406;-77
2020/12/18 02:03:57;;;;;;;8.60;3.75;;;5.90;99.90;;;;;;6712584;88;20204;-77
2020/12/18 02:13:58;;;;;;;9.98;3.58;;;5.90;99.90;;;;;;6717607;88;20191;-77
2020/12/18 02:23:58;;;;;;;6.13;3.57;;;6.00;99.90;;;;;;6714823;88;20677;-77
2020/12/18 02:33:59;;;;;;;11.10;3.80;;;6.10;99.90;;;;;;6719841;88;20542;-77
2020/12/18 02:43:59;;;;;;;11.23;3.55;;;6.00;99.90;;;;;;6716866;88;20212;-77
2020/12/18 02:54:00;;;;;;;10.43;3.72;;;5.80;99.90;;;;;;6712719;88;20205;-77
2020/12/18 03:04:00;;;;;;;8.82;3.70;;;5.80;99.90;;;;;;6718206;88;20190;-76
2020/12/18 03:14:02;;;;;;;12.57;4.32;;;5.80;99.90;;;;;;6717899;88;20760;-77
2020/12/18 03:24:03;;;;;;;8.25;3.85;;;5.80;99.90;;;;;;6722630;88;20273;-77
2020/12/18 03:34:03;;;;;;;8.05;3.12;;;5.90;99.90;;;;;;6723380;88;20215;-77
2020/12/18 03:44:04;;;;;;;7.12;3.30;;;5.80;99.90;;;;;;6716008;88;20204;-77
2020/12/18 03:54:05;;;;;;;7.78;3.10;;;5.70;99.90;;;;;;6712708;88;20340;-75
2020/12/18 04:04:05;;;;;;;10.13;3.50;;;5.70;99.90;;;;;;6710964;88;20218;-76
2020/12/18 04:14:06;;;;;;;8.45;3.25;;;5.50;99.90;;;;;;6717535;88;20190;-76
2020/12/18 04:24:06;;;;;;;12.23;3.60;;;5.50;99.90;;;;;;6711272;88;20332;-77
2020/12/18 04:34:07;;;;;;;9.00;3.70;;;5.40;99.90;;;;;;6717596;88;20365;-76
2020/12/18 04:44:09;;;;;;;7.95;4.12;;;5.50;99.90;;;;;;6723881;88;20186;-77
2020/12/18 04:54:11;;;;;;;10.45;3.58;;;5.40;99.90;;;;;;6724239;88;20205;-77
2020/12/18 05:04:14;;;;;;;12.20;3.92;;;5.30;99.90;;;;;;6720756;88;20723;-77
2020/12/18 05:14:15;;;;;;;11.77;3.78;;;5.30;99.90;;;;;;6725573;88;20632;-75
2020/12/18 05:24:15;;;;;;;10.85;4.28;;;5.20;99.90;;;;;;6722624;88;20182;-76
2020/12/18 05:34:16;;;;;;;9.05;4.12;;;5.20;99.90;;;;;;6720463;88;20234;-77
2020/12/18 05:44:22;;;;;;;10.02;4.07;;;5.10;99.90;;;;;;6716275;88;20346;-77
2020/12/18 05:54:31;;;;;;;8.90;4.27;;;5.20;99.90;;;;;;6722606;88;20233;-77
2020/12/18 06:04:32;;;;;;;10.30;4.15;;;5.20;99.90;;;;;;6712337;88;20625;-78
2020/12/18 06:14:34;;;;;;;15.05;4.25;;;5.10;99.90;;;;;;6706616;88;20171;-77
2020/12/18 06:24:53;;;;;;;18.15;5.28;;;5.10;99.90;;;;;;6710733;88;20197;-77
2020/12/18 06:35:14;;;;;;;9.18;4.43;;;5.10;99.90;;;;;;6710983;88;20703;-75
2020/12/18 06:45:15;;;;;;;10.07;4.32;;;5.20;99.90;;;;;;6700148;88;20684;-75
2020/12/18 06:55:33;;;;;;;8.30;4.45;;;5.00;99.90;;;;;;6743684;77;20192;-77
2020/12/18 07:05:37;;;;;;;11.68;4.12;;;5.20;99.90;;;;;;6749881;88;20204;-78
2020/12/18 07:15:47;;;;;;;8.13;4.65;;;5.40;99.90;;;;;;6752330;88;20189;-78
2020/12/18 07:25:48;;;;;;;10.38;4.30;;;5.50;99.90;;;;;;6751690;88;20187;-77
2020/12/18 07:35:52;;;;;;;10.32;4.57;;;5.50;99.90;;;;;;6748610;88;20206;-77
2020/12/18 07:45:55;;;;;;;11.27;4.37;;;5.60;99.90;;;;;;6743080;88;20210;-80
2020/12/18 07:56:09;;;;;;;9.15;3.97;;;5.60;99.90;;;;;;6743890;88;20489;-78
2020/12/18 08:06:16;;;;;;;9.65;4.18;;;5.70;99.90;;;;;;6731011;88;20222;-74
2020/12/18 08:16:16;;;;;;;;;;;5.80;99.90;;;;;;6736463;88;20221;-76
2020/12/18 08:26:19;;;;;;;7.07;3.72;;;5.90;99.90;;;;;;6747575;88;20546;-73
2020/12/18 08:36:23;;;;;;;10.77;3.80;;;6.00;99.90;;;;;;6747170;88;20648;-74
2020/12/18 08:46:31;;;;;;;6.87;3.25;;;6.20;99.90;;;;;;6737695;88;20197;-74
2020/12/18 08:56:31;;;;;;;8.00;3.20;;;6.50;99.90;;;;;;6737741;87;20194;-74
2020/12/18 09:06:32;;;;;;;10.18;3.33;;;7.00;99.90;;;;;;6734804;88;20198;-74
2020/12/18 09:16:33;;;;;;;7.40;3.50;;;7.30;99.90;;;;;;6741751;88;20240;-74
2020/12/18 09:26:34;;;;;;;5.03;2.62;;;7.50;99.90;;;;;;6733991;88;20238;-74
2020/12/18 09:36:34;;;;;;;6.30;2.83;;;8.00;99.90;;;;;;6734670;88;20749;-74
2020/12/18 09:46:35;;;;;;;5.70;2.25;;;8.10;99.90;;;;;;6735501;88;20192;-76
2020/12/18 09:56:35;;;;;;;5.32;2.70;;;8.40;99.90;;;;;;6734793;88;20308;-76
2020/12/18 10:06:36;;;;;;;6.37;2.80;;;8.60;99.90;;;;;;6734200;88;20339;-74
2020/12/18 10:16:36;;;;;;;6.07;3.05;;;8.80;99.90;;;;;;6726196;88;20219;-73
2020/12/18 10:26:37;;;;;;;7.50;2.53;;;8.80;99.90;;;;;;6734226;88;20197;-75
2020/12/18 10:36:37;;;;;;;8.00;3.10;;;9.40;99.90;;;;;;6730908;88;20296;-75
2020/12/18 10:46:40;;;;;;;6.62;3.00;;;9.30;99.90;;;;;;6732447;88;20190;-79
2020/12/18 10:56:42;;;;;;;9.00;3.33;;;9.60;99.90;;;;;;6735659;88;20655;-74
2020/12/18 11:13:04;;;;;;;5.57;2.25;;;9.60;99.90;;;;;;6772897;86;21145;-72
2020/12/18 11:23:05;;;;;;;6.50;3.12;;;10.00;99.90;;;;;;6749507;87;20307;-74
2020/12/18 11:33:05;;;;;;;5.68;2.80;;;10.00;99.90;;;;;;6750844;87;20349;-73
2020/12/18 11:43:06;;;;;;;6.28;3.53;;;10.60;99.90;;;;;;6749873;87;20641;-72
2020/12/18 11:53:08;;;;;;;5.75;2.90;;;10.70;99.90;;;;;;6750617;87;20670;-76
2020/12/18 12:03:09;;;;;;;8.57;3.03;;;10.90;99.90;;;;;;6751670;87;20185;-76
2020/12/18 12:13:09;;;;;;;6.18;2.78;;;10.60;99.90;;;;;;6754889;87;20189;-74
2020/12/18 12:23:10;;;;;;;7.18;2.70;;;11.00;99.90;;;;;;6745046;87;20315;-75
2020/12/18 12:33:10;;;;;;;6.97;2.30;;;11.70;99.90;;;;;;6742742;88;20201;-74
2020/12/18 12:43:11;;;;;;;3.90;1.70;;;11.30;99.90;;;;;;6743760;88;20209;-74
2020/12/18 12:53:11;;;;;;;5.37;2.20;;;11.70;99.90;;;;;;6737996;88;20251;-73
2020/12/18 13:03:12;;;;;;;4.37;1.95;;;11.70;99.90;;;;;;6740451;76;20181;-76
2020/12/18 13:13:13;;;;;;;4.85;1.60;;;12.50;99.90;;;;;;6742760;88;20193;-76
2020/12/18 13:23:13;;;;;;;4.57;1.70;;;12.40;99.90;;;;;;6743242;88;20327;-75
2020/12/18 13:33:14;;;;;;;6.35;1.83;;;12.30;99.90;;;;;;6741569;88;20183;-76
2020/12/18 13:43:14;;;;;;;4.00;1.73;;;11.70;99.90;;;;;;6743144;88;20220;-75
2020/12/18 13:53:15;;;;;;;4.55;1.73;;;11.10;99.90;;;;;;6742129;88;20200;-76
2020/12/18 14:03:15;;;;;;;4.47;1.90;;;10.90;99.90;;;;;;6736299;88;20246;-73
2020/12/18 14:13:16;;;;;;;3.47;1.50;;;10.60;99.90;;;;;;6746472;88;20510;-76
2020/12/18 14:23:16;;;;;;;3.25;1.70;;;10.50;99.90;;;;;;6741425;88;20578;-79
2020/12/18 14:33:17;;;;;;;3.58;1.37;;;10.50;99.90;;;;;;6722473;88;20176;-76
2020/12/18 14:43:18;;;;;;;5.20;2.05;;;10.10;99.90;;;;;;6735416;88;20338;-75
2020/12/18 14:53:18;;;;;;;5.55;1.80;;;9.80;99.90;;;;;;6742033;88;20201;-76
2020/12/18 15:03:19;;;;;;;2.62;1.35;;;9.30;99.90;;;;;;6739745;88;20388;-72
2020/12/18 15:13:19;;;;;;;3.83;1.40;;;9.00;99.90;;;;;;6724861;88;20168;-75
2020/12/18 15:23:20;;;;;;;4.72;1.60;;;8.90;99.90;;;;;;6730603;88;20209;-75
2020/12/18 15:33:20;;;;;;;3.62;1.58;;;8.70;99.90;;;;;;6736436;88;20227;-75
2020/12/18 15:43:21;;;;;;;5.27;2.20;;;8.50;99.90;;;;;;6744901;88;20212;-74
2020/12/18 15:53:21;;;;;;;5.05;1.90;;;8.40;99.90;;;;;;6746928;88;21116;-77
2020/12/18 16:03:22;;;;;;;4.68;2.25;;;8.30;99.90;;;;;;6746374;88;20310;-76
2020/12/18 16:13:24;;;;;;;4.82;2.10;;;8.20;99.90;;;;;;6744582;88;20184;-76
2020/12/18 16:23:24;;;;;;;4.22;2.22;;;8.10;99.90;;;;;;6743926;88;21523;-77
2020/12/18 16:33:25;;;;;;;5.20;1.92;;;8.00;99.90;;;;;;6747416;88;20217;-75
2020/12/18 16:43:26;;;;;;;5.25;2.62;;;8.00;99.90;;;;;;6738666;88;20298;-75
2020/12/18 16:53:26;;;;;;;5.53;2.83;;;7.80;99.90;;;;;;6738702;88;20185;-75
2020/12/18 17:03:27;;;;;;;6.07;2.55;;;7.70;99.90;;;;;;6749682;88;20323;-77
2020/12/18 17:13:29;;;;;;;6.75;3.00;;;7.70;99.90;;;;;;6749802;88;20190;-74
2020/12/18 17:23:30;;;;;;;7.87;3.70;;;7.50;99.90;;;;;;6747540;88;20748;-75
2020/12/18 17:33:30;;;;;;;9.95;3.67;;;7.40;99.90;;;;;;6751922;88;20181;-76
2020/12/18 17:43:31;;;;;;;7.72;4.10;;;7.40;99.90;;;;;;6750086;88;20177;-75
2020/12/18 17:53:31;;;;;;;8.02;4.20;;;7.30;99.90;;;;;;6749844;88;20192;-74
2020/12/18 18:03:32;;;;;;;10.15;4.47;;;7.30;99.90;;;;;;6760098;88;20281;-75
2020/12/18 18:13:33;;;;;;;9.73;4.85;;;7.20;99.90;;;;;;6753895;88;20180;-76
2020/12/18 18:23:33;;;;;;;10.75;5.25;;;7.10;99.90;;;;;;6746617;88;20177;-77
2020/12/18 18:33:34;;;;;;;9.60;5.20;;;7.20;99.90;;;;;;6753142;88;20755;-78
2020/12/18 18:43:34;;;;;;;12.70;6.00;;;7.00;99.90;;;;;;6755962;88;20672;-75
2020/12/18 18:53:35;;;;;;;12.48;6.50;;;7.00;99.90;;;;;;6749912;88;20224;-76
2020/12/18 19:03:35;;;;;;;12.02;6.35;;;7.10;99.90;;;;;;6749376;88;20232;-75
2020/12/18 19:13:36;;;;;;;13.43;7.62;;;7.10;99.90;;;;;;6746397;77;20216;-78
2020/12/18 19:23:37;;;;;;;13.97;7.03;;;7.10;99.90;;;;;;6731207;88;20176;-75
2020/12/18 19:33:37;;;;;;;13.38;6.18;;;7.00;99.90;;;;;;6737551;88;20550;-77
2020/12/18 19:43:38;;;;;;;13.15;6.45;;;7.00;99.90;;;;;;6718355;88;20198;-76
2020/12/18 19:53:39;;;;;;;12.93;6.28;;;7.00;99.90;;;;;;6712602;88;20284;-76
2020/12/18 20:03:39;;;;;;;12.70;6.85;;;6.90;99.90;;;;;;6720115;88;20832;-76
2020/12/18 20:13:40;;;;;;;16.98;7.75;;;6.80;99.90;;;;;;6719173;88;20639;-78
2020/12/18 20:23:41;;;;;;;12.40;6.93;;;6.80;99.90;;;;;;6717928;88;20756;-76
2020/12/18 20:33:44;;;;;;;13.90;6.97;;;6.70;99.90;;;;;;6711375;88;20789;-78
2020/12/18 20:43:45;;;;;;;14.18;7.75;;;6.60;99.90;;;;;;6718659;88;21088;-78
2020/12/18 20:53:46;;;;;;;14.57;8.15;;;6.50;99.90;;;;;;6718688;88;20297;-78
2020/12/18 21:03:46;;;;;;;15.48;8.25;;;6.50;99.90;;;;;;6719016;88;20277;-77
2020/12/18 21:13:47;;;;;;;17.08;8.18;;;6.50;99.90;;;;;;6718673;88;20390;-74
2020/12/18 21:23:48;;;;;;;15.02;7.82;;;6.50;99.90;;;;;;6718902;88;20216;-75
2020/12/18 21:33:48;;;;;;;15.43;7.55;;;6.60;99.90;;;;;;6716665;88;20693;-76
2020/12/18 21:43:49;;;;;;;13.70;7.12;;;6.70;99.90;;;;;;6712641;88;20192;-76
2020/12/18 21:53:49;;;;;;;12.82;6.60;;;6.80;99.90;;;;;;6715871;88;20214;-76
2020/12/18 22:03:50;;;;;;;12.55;6.30;;;7.00;99.90;;;;;;6716262;88;20299;-74
2020/12/18 22:13:50;;;;;;;11.93;6.57;;;7.20;99.90;;;;;;6716831;88;20350;-78
2020/12/18 22:23:51;;;;;;;12.60;6.32;;;7.10;99.90;;;;;;6718236;88;20703;-78
2020/12/18 22:33:51;;;;;;;11.65;6.65;;;7.00;99.90;;;;;;6742237;88;20222;-78
2020/12/18 22:43:52;;;;;;;12.32;6.30;;;7.00;99.90;;;;;;6723467;88;20244;-74
2020/12/18 22:53:52;;;;;;;9.70;5.95;;;7.10;99.90;;;;;;6716649;88;20303;-77
2020/12/18 23:03:53;;;;;;;11.68;6.25;;;7.10;99.90;;;;;;6719018;88;20244;-77
2020/12/18 23:13:53;;;;;;;11.57;6.10;;;7.10;99.90;;;;;;6723156;88;20290;-75
2020/12/18 23:23:54;;;;;;;9.60;5.75;;;7.00;99.90;;;;;;6721901;88;20177;-76
2020/12/18 23:33:55;;;;;;;9.88;6.10;;;6.90;99.90;;;;;;6722951;88;20245;-76
2020/12/18 23:43:55;;;;;;;11.10;6.05;;;6.80;99.90;;;;;;6717704;88;20201;-76
2020/12/18 23:53:56;;;;;;;10.80;6.25;;;6.90;99.90;;;;;;6719984;88;20501;-76
